createdAt,value
2018-03-07T00:01:07.432Z,2.10
2018-03-07T00:03:33.886Z,2.10
2018-03-07T00:06:00.084Z,2.10
2018-03-07T00:08:26.392Z,2.10
2018-03-07T00:10:52.624Z,2.10
2018-03-07T00:13:19.649Z,2.00
2018-03-07T00:15:45.865Z,2.00
2018-03-07T00:18:12.088Z,2.00
2018-03-07T00:20:38.284Z,2.00
2018-03-07T00:23:04.511Z,2.00
2018-03-07T00:25:30.720Z,2.00
2018-03-07T00:27:57.726Z,1.90
2018-03-07T00:30:23.904Z,1.90
2018-03-07T00:32:50.845Z,1.90
2018-03-07T00:35:17.917Z,1.90
2018-03-07T00:37:44.126Z,1.80
2018-03-07T00:40:10.415Z,1.90
2018-03-07T00:42:36.636Z,1.80
2018-03-07T00:45:02.894Z,1.80
2018-03-07T00:47:29.871Z,1.80
2018-03-07T00:49:56.083Z,1.80
2018-03-07T00:52:23.101Z,1.80
2018-03-07T00:54:49.408Z,1.80
2018-03-07T00:57:15.761Z,1.80
2018-03-07T00:59:41.945Z,1.80
2018-03-07T01:02:08.232Z,1.80
2018-03-07T01:04:35.158Z,1.70
2018-03-07T01:07:02.201Z,1.70
2018-03-07T01:09:28.397Z,1.80
2018-03-07T01:11:54.589Z,1.70
2018-03-07T01:14:20.781Z,1.70
2018-03-07T01:16:47.063Z,1.70
2018-03-07T01:19:14.013Z,1.70
2018-03-07T01:21:40.278Z,1.70
2018-03-07T01:24:06.465Z,1.70
2018-03-07T01:26:32.653Z,1.60
2018-03-07T01:28:58.924Z,1.60
2018-03-07T01:31:25.152Z,1.60
2018-03-07T01:33:51.342Z,1.60
2018-03-07T01:36:17.577Z,1.60
2018-03-07T01:38:43.845Z,1.60
2018-03-07T01:41:10.052Z,1.60
2018-03-07T01:43:36.983Z,1.50
2018-03-07T01:46:03.224Z,1.50
2018-03-07T01:48:30.171Z,1.50
2018-03-07T01:50:57.106Z,1.40
2018-03-07T01:53:23.372Z,1.50
2018-03-07T01:55:49.793Z,1.40
2018-03-07T01:58:16.810Z,1.40
2018-03-07T02:00:43.002Z,1.40
2018-03-07T02:03:09.250Z,1.40
2018-03-07T02:05:35.424Z,1.40
2018-03-07T02:08:02.361Z,1.30
2018-03-07T02:10:29.556Z,1.30
2018-03-07T02:12:55.754Z,1.30
2018-03-07T02:15:21.975Z,1.30
2018-03-07T02:17:48.970Z,1.30
2018-03-07T02:20:15.506Z,1.30
2018-03-07T02:22:41.758Z,1.30
2018-03-07T02:25:07.984Z,1.30
2018-03-07T02:27:34.173Z,1.20
2018-03-07T02:30:00.372Z,1.30
2018-03-07T02:32:26.604Z,1.20
2018-03-07T02:34:53.581Z,1.20
2018-03-07T02:37:19.771Z,1.20
2018-03-07T02:39:46.774Z,1.20
2018-03-07T02:42:12.972Z,1.20
2018-03-07T02:44:39.165Z,1.10
2018-03-07T02:47:05.429Z,1.10
2018-03-07T02:49:31.645Z,1.10
2018-03-07T02:51:57.916Z,1.10
2018-03-07T02:54:24.217Z,1.10
2018-03-07T02:56:50.414Z,1.10
2018-03-07T02:59:17.510Z,1.10
2018-03-07T03:01:43.795Z,1.10
2018-03-07T03:04:10.745Z,1.00
2018-03-07T03:06:37.717Z,1.00
2018-03-07T03:09:03.940Z,1.00
2018-03-07T03:11:30.159Z,1.00
2018-03-07T03:13:56.399Z,1.00
2018-03-07T03:16:23.433Z,1.00
2018-03-07T03:18:50.387Z,1.00
2018-03-07T03:21:17.581Z,1.00
2018-03-07T03:23:44.707Z,1.00
2018-03-07T03:26:11.244Z,0.90
2018-03-07T03:28:38.140Z,1.00
2018-03-07T03:31:04.851Z,1.00
2018-03-07T03:33:33.042Z,0.90
2018-03-07T03:35:59.296Z,0.90
2018-03-07T03:38:26.221Z,0.90
2018-03-07T03:40:52.543Z,0.90
2018-03-07T03:43:18.743Z,0.90
2018-03-07T03:45:44.996Z,0.90
2018-03-07T03:48:11.197Z,0.90
2018-03-07T03:50:38.109Z,0.90
2018-03-07T03:53:04.326Z,0.90
2018-03-07T03:55:30.519Z,0.90
2018-03-07T03:57:56.714Z,0.90
2018-03-07T04:00:23.696Z,0.90
2018-03-07T04:02:50.184Z,0.90
2018-03-07T04:05:17.129Z,0.80
2018-03-07T04:07:43.408Z,0.80
2018-03-07T04:10:09.582Z,0.80
2018-03-07T04:12:35.801Z,0.90
2018-03-07T04:15:02.214Z,0.80
2018-03-07T04:17:28.409Z,0.80
2018-03-07T04:19:54.701Z,0.80
2018-03-07T04:22:20.911Z,0.80
2018-03-07T04:24:47.096Z,0.80
2018-03-07T04:27:13.274Z,0.70
2018-03-07T04:29:39.461Z,0.70
2018-03-07T04:32:05.776Z,0.70
2018-03-07T04:34:32.726Z,0.70
2018-03-07T04:36:58.944Z,0.70
2018-03-07T04:39:25.957Z,0.60
2018-03-07T04:41:52.257Z,0.60
2018-03-07T04:44:18.514Z,0.60
2018-03-07T04:46:44.778Z,0.60
2018-03-07T04:49:11.731Z,0.60
2018-03-07T04:51:38.775Z,0.60
2018-03-07T04:54:04.988Z,0.60
2018-03-07T04:56:31.263Z,0.60
2018-03-07T04:58:57.550Z,0.60
2018-03-07T05:01:23.847Z,0.50
2018-03-07T05:03:50.249Z,0.50
2018-03-07T05:06:16.505Z,0.50
2018-03-07T05:08:42.749Z,0.50
2018-03-07T05:11:08.941Z,0.50
2018-03-07T05:13:35.157Z,0.40
2018-03-07T05:16:01.372Z,0.40
2018-03-07T05:18:28.323Z,0.40
2018-03-07T05:20:55.256Z,0.40
2018-03-07T05:23:22.234Z,0.30
2018-03-07T05:25:48.430Z,0.40
2018-03-07T05:28:15.416Z,0.40
2018-03-07T05:30:41.581Z,0.30
2018-03-07T05:33:07.780Z,0.40
2018-03-07T05:35:34.021Z,0.30
2018-03-07T05:38:00.213Z,0.30
2018-03-07T05:40:26.407Z,0.30
2018-03-07T05:42:52.616Z,0.30
2018-03-07T05:45:18.812Z,0.30
2018-03-07T05:47:45.017Z,0.30
2018-03-07T05:50:11.327Z,0.30
2018-03-07T05:52:37.511Z,0.20
2018-03-07T05:55:03.743Z,0.20
2018-03-07T05:57:29.952Z,0.20
2018-03-07T05:59:56.230Z,0.20
2018-03-07T06:02:22.450Z,0.20
2018-03-07T06:04:48.665Z,0.20
2018-03-07T06:07:14.906Z,0.20
2018-03-07T06:09:41.112Z,0.20
2018-03-07T06:12:07.417Z,0.20
2018-03-07T06:14:33.697Z,0.20
2018-03-07T06:17:00.626Z,0.20
2018-03-07T06:19:26.841Z,0.10
2018-03-07T06:21:53.112Z,0.20
2018-03-07T06:24:19.557Z,0.20
2018-03-07T06:26:46.512Z,0.20
2018-03-07T06:29:13.470Z,0.20
2018-03-07T06:31:39.701Z,0.20
2018-03-07T06:34:05.904Z,0.20
2018-03-07T06:36:33.017Z,0.20
2018-03-07T06:38:59.234Z,0.20
2018-03-07T06:41:25.464Z,0.20
2018-03-07T06:43:51.734Z,0.30
2018-03-07T06:46:18.011Z,0.30
2018-03-07T06:48:44.280Z,0.30
2018-03-07T06:51:10.482Z,0.30
2018-03-07T06:53:36.798Z,0.30
2018-03-07T06:56:02.997Z,0.30
2018-03-07T06:58:29.216Z,0.40
2018-03-07T07:00:56.325Z,0.40
2018-03-07T07:03:22.542Z,0.40
2018-03-07T07:05:48.817Z,0.40
2018-03-07T07:08:15.075Z,0.40
2018-03-07T07:10:42.052Z,0.50
2018-03-07T07:13:08.271Z,0.50
2018-03-07T07:15:34.479Z,0.50
2018-03-07T07:18:00.726Z,0.50
2018-03-07T07:20:27.119Z,0.60
2018-03-07T07:22:54.142Z,0.60
2018-03-07T07:25:20.359Z,0.60
2018-03-07T07:27:46.595Z,0.70
2018-03-07T07:30:12.795Z,0.70
2018-03-07T07:32:38.990Z,0.70
2018-03-07T07:35:05.918Z,0.80
2018-03-07T07:37:32.138Z,0.80
2018-03-07T07:39:58.301Z,0.80
2018-03-07T07:42:24.588Z,0.80
2018-03-07T07:44:50.811Z,0.90
2018-03-07T07:47:17.816Z,0.90
2018-03-07T07:49:44.777Z,0.90
2018-03-07T07:52:11.020Z,0.90
2018-03-07T07:54:37.265Z,1.00
2018-03-07T07:57:03.466Z,1.00
2018-03-07T07:59:29.665Z,1.00
2018-03-07T08:01:56.738Z,1.10
2018-03-07T08:04:22.934Z,1.10
2018-03-07T08:06:49.235Z,1.10
2018-03-07T08:09:15.486Z,1.20
2018-03-07T08:11:49.762Z,1.30
2018-03-07T08:14:15.974Z,1.20
2018-03-07T08:16:42.193Z,1.30
2018-03-07T08:19:08.449Z,1.30
2018-03-07T08:21:34.677Z,1.40
2018-03-07T08:24:00.865Z,1.40
2018-03-07T08:26:27.874Z,1.50
2018-03-07T08:28:54.979Z,1.60
2018-03-07T08:31:21.245Z,1.50
2018-03-07T08:33:47.615Z,1.60
2018-03-07T08:36:13.814Z,1.70
2018-03-07T08:38:40.017Z,1.70
2018-03-07T08:41:06.339Z,1.80
2018-03-07T08:43:32.534Z,1.80
2018-03-07T08:45:58.795Z,1.90
2018-03-07T08:48:25.723Z,2.00
2018-03-07T08:50:51.919Z,2.00
2018-03-07T08:53:18.161Z,2.10
2018-03-07T08:55:45.294Z,2.20
2018-03-07T08:58:11.507Z,2.20
2018-03-07T09:00:37.719Z,2.30
2018-03-07T09:03:04.696Z,2.40
2018-03-07T09:05:31.056Z,2.30
2018-03-07T09:07:57.475Z,2.40
2018-03-07T09:10:23.794Z,2.50
2018-03-07T09:12:50.246Z,2.60
2018-03-07T09:15:16.594Z,2.60
2018-03-07T09:17:42.919Z,2.70
2018-03-07T09:20:09.115Z,2.80
2018-03-07T09:22:35.360Z,2.80
2018-03-07T09:25:01.584Z,2.90
2018-03-07T09:27:27.959Z,3.00
2018-03-07T09:29:54.217Z,3.10
2018-03-07T09:32:20.519Z,3.20
2018-03-07T09:34:46.818Z,3.20
2018-03-07T09:37:13.045Z,3.30
2018-03-07T09:39:39.374Z,3.40
2018-03-07T09:42:05.601Z,3.50
2018-03-07T09:44:31.832Z,3.60
2018-03-07T09:46:58.092Z,3.60
2018-03-07T09:49:24.392Z,3.70
2018-03-07T09:51:50.630Z,3.70
2018-03-07T09:54:16.868Z,3.80
2018-03-07T09:56:43.083Z,3.90
2018-03-07T09:59:09.345Z,3.90
2018-03-07T10:01:35.543Z,4.00
2018-03-07T10:04:01.756Z,4.10
2018-03-07T10:06:27.977Z,4.10
2018-03-07T10:08:54.269Z,4.20
2018-03-07T10:11:21.193Z,4.30
2018-03-07T10:13:47.415Z,4.30
2018-03-07T10:16:13.611Z,4.40
2018-03-07T10:18:39.860Z,4.50
2018-03-07T10:21:06.077Z,4.50
2018-03-07T10:23:32.407Z,4.60
2018-03-07T10:25:58.622Z,4.70
2018-03-07T10:28:24.820Z,4.70
2018-03-07T10:30:51.770Z,4.80
2018-03-07T10:33:25.781Z,4.90
2018-03-07T10:35:52.843Z,5.00
2018-03-07T10:38:19.824Z,5.10
2018-03-07T10:40:46.069Z,5.00
2018-03-07T10:43:12.386Z,5.10
2018-03-07T10:45:38.609Z,5.20
2018-03-07T10:48:04.920Z,5.30
2018-03-07T10:50:31.165Z,5.40
2018-03-07T10:52:57.402Z,5.40
2018-03-07T10:55:23.609Z,5.50
2018-03-07T10:57:49.875Z,5.50
2018-03-07T11:00:22.295Z,5.60
2018-03-07T11:02:49.512Z,5.60
2018-03-07T11:05:15.866Z,5.60
2018-03-07T11:07:42.088Z,5.70
2018-03-07T11:10:08.402Z,5.70
2018-03-07T11:12:34.647Z,5.80
2018-03-07T11:15:01.153Z,5.80
2018-03-07T11:17:27.439Z,5.80
2018-03-07T11:19:54.421Z,5.90
2018-03-07T11:22:20.662Z,5.90
2018-03-07T11:24:46.897Z,6.00
2018-03-07T11:27:13.149Z,6.00
2018-03-07T11:29:40.158Z,6.10
2018-03-07T11:32:06.481Z,6.10
2018-03-07T11:34:32.747Z,6.10
2018-03-07T11:36:58.954Z,6.20
2018-03-07T11:39:25.145Z,6.20
2018-03-07T11:41:51.361Z,6.30
2018-03-07T11:44:18.363Z,6.40
2018-03-07T11:46:44.580Z,6.40
2018-03-07T11:49:10.826Z,6.40
2018-03-07T11:51:37.025Z,6.50
2018-03-07T11:54:03.260Z,6.50
2018-03-07T11:56:29.530Z,6.50
2018-03-07T11:58:55.754Z,6.60
2018-03-07T12:01:22.015Z,6.60
2018-03-07T12:03:49.080Z,6.70
2018-03-07T12:06:15.336Z,6.70
2018-03-07T12:08:41.559Z,6.70
2018-03-07T12:11:07.788Z,6.70
2018-03-07T12:13:34.028Z,6.80
2018-03-07T12:16:00.247Z,6.80
2018-03-07T12:18:26.631Z,6.80
2018-03-07T12:20:53.591Z,6.90
2018-03-07T12:23:20.567Z,6.90
2018-03-07T12:25:46.805Z,6.90
2018-03-07T12:28:13.092Z,7.00
2018-03-07T12:30:40.021Z,7.00
2018-03-07T12:33:06.318Z,7.00
2018-03-07T12:35:32.514Z,7.00
2018-03-07T12:37:58.818Z,7.10
2018-03-07T12:40:25.797Z,7.10
2018-03-07T12:42:52.070Z,7.10
2018-03-07T12:45:18.275Z,7.10
2018-03-07T12:47:44.492Z,7.10
2018-03-07T12:50:10.701Z,7.20
2018-03-07T12:52:37.754Z,7.20
2018-03-07T12:55:04.522Z,7.20
2018-03-07T12:57:30.795Z,7.30
2018-03-07T12:59:57.032Z,7.30
2018-03-07T13:02:24.048Z,7.30
2018-03-07T13:04:50.516Z,7.30
2018-03-07T13:07:17.560Z,7.40
2018-03-07T13:09:44.569Z,7.50
2018-03-07T13:12:10.784Z,7.40
2018-03-07T13:14:36.994Z,7.50
2018-03-07T13:17:03.212Z,7.50
2018-03-07T13:19:30.193Z,7.50
2018-03-07T13:21:56.394Z,7.50
2018-03-07T13:24:22.595Z,7.50
2018-03-07T13:26:48.883Z,7.60
2018-03-07T13:29:15.064Z,7.60
2018-03-07T13:31:42.009Z,7.70
2018-03-07T13:34:08.948Z,7.70
2018-03-07T13:36:36.034Z,7.80
2018-03-07T13:39:02.284Z,7.80
2018-03-07T13:41:28.614Z,7.80
2018-03-07T13:43:54.830Z,7.80
2018-03-07T13:46:21.021Z,7.80
2018-03-07T13:48:48.059Z,7.80
2018-03-07T13:51:14.279Z,7.90
2018-03-07T13:53:40.585Z,7.90
2018-03-07T13:56:06.804Z,7.90
2018-03-07T13:58:33.142Z,8.00
2018-03-07T14:00:59.426Z,8.00
2018-03-07T14:03:26.456Z,8.00
2018-03-07T14:05:52.733Z,8.00
2018-03-07T14:08:19.162Z,8.00
2018-03-07T14:10:45.358Z,8.10
2018-03-07T14:13:12.604Z,8.00
2018-03-07T14:15:39.673Z,8.00
2018-03-07T14:18:06.652Z,8.00
2018-03-07T14:20:32.876Z,8.00
2018-03-07T14:22:59.093Z,8.00
2018-03-07T14:25:25.287Z,8.00
2018-03-07T14:27:52.379Z,8.10
2018-03-07T14:30:18.605Z,8.10
2018-03-07T14:32:44.875Z,8.10
2018-03-07T14:35:11.068Z,8.00
2018-03-07T14:37:37.330Z,8.00
2018-03-07T14:40:03.538Z,8.00
2018-03-07T14:42:29.843Z,8.00
2018-03-07T14:44:56.085Z,8.00
2018-03-07T14:47:22.418Z,8.00
2018-03-07T14:49:48.617Z,8.00
2018-03-07T14:52:21.410Z,8.00
2018-03-07T14:54:47.665Z,7.90
2018-03-07T14:57:13.884Z,7.90
2018-03-07T14:59:40.114Z,7.90
2018-03-07T15:02:06.382Z,7.90
2018-03-07T15:04:32.632Z,7.90
2018-03-07T15:06:59.575Z,7.90
2018-03-07T15:09:25.866Z,7.90
2018-03-07T15:11:52.112Z,7.90
2018-03-07T15:14:18.365Z,7.90
2018-03-07T15:16:45.319Z,7.80
2018-03-07T15:19:12.596Z,7.80
2018-03-07T15:21:38.785Z,7.80
2018-03-07T15:24:05.000Z,7.80
2018-03-07T15:26:31.231Z,7.80
2018-03-07T15:28:57.433Z,7.80
2018-03-07T15:31:23.744Z,7.70
2018-03-07T15:33:50.191Z,7.70
2018-03-07T15:36:16.522Z,7.70
2018-03-07T15:38:42.747Z,7.60
2018-03-07T15:41:09.062Z,7.60
2018-03-07T15:43:35.271Z,7.60
2018-03-07T15:46:02.246Z,7.60
2018-03-07T15:48:28.464Z,7.50
2018-03-07T15:50:54.794Z,7.50
2018-03-07T15:53:21.088Z,7.50
2018-03-07T15:55:47.346Z,7.40
2018-03-07T15:58:14.352Z,7.40
2018-03-07T16:00:40.554Z,7.40
2018-03-07T16:03:06.839Z,7.40
2018-03-07T16:05:33.787Z,7.30
2018-03-07T16:08:00.749Z,7.30
2018-03-07T16:10:27.734Z,7.20
2018-03-07T16:12:53.978Z,7.20
2018-03-07T16:15:20.227Z,7.20
2018-03-07T16:17:46.463Z,7.20
2018-03-07T16:20:13.409Z,7.20
2018-03-07T16:22:39.636Z,7.20
2018-03-07T16:25:06.663Z,7.10
2018-03-07T16:27:32.894Z,7.10
2018-03-07T16:29:59.077Z,7.10
2018-03-07T16:32:25.491Z,7.00
2018-03-07T16:34:52.564Z,7.00
2018-03-07T16:37:18.760Z,7.00
2018-03-07T16:39:45.968Z,7.00
2018-03-07T16:42:12.950Z,6.90
2018-03-07T16:44:40.663Z,6.90
2018-03-07T16:47:06.979Z,6.90
2018-03-07T16:49:33.167Z,6.90
2018-03-07T16:51:59.542Z,6.80
2018-03-07T16:54:25.776Z,6.80
2018-03-07T16:56:52.822Z,6.70
2018-03-07T16:59:19.084Z,6.70
2018-03-07T17:01:45.377Z,6.70
2018-03-07T17:04:11.609Z,6.60
2018-03-07T17:06:37.890Z,6.60
2018-03-07T17:09:04.139Z,6.50
2018-03-07T17:11:31.054Z,6.50
2018-03-07T17:13:57.271Z,6.50
2018-03-07T17:16:23.562Z,6.50
2018-03-07T17:18:49.814Z,6.50
2018-03-07T17:21:16.286Z,6.40
2018-03-07T17:23:42.477Z,6.40
2018-03-07T17:26:08.761Z,6.30
2018-03-07T17:28:35.734Z,6.30
2018-03-07T17:31:01.953Z,6.30
2018-03-07T17:33:28.183Z,6.30
2018-03-07T17:35:54.535Z,6.30
2018-03-07T17:38:20.809Z,6.30
2018-03-07T17:40:47.017Z,6.30
2018-03-07T17:43:13.325Z,6.20
2018-03-07T17:45:39.533Z,6.20
2018-03-07T17:48:05.827Z,6.20
2018-03-07T17:50:32.066Z,6.10
2018-03-07T17:52:59.230Z,6.10
2018-03-07T17:55:26.234Z,6.00
2018-03-07T17:57:52.458Z,6.00
2018-03-07T18:00:25.658Z,6.00
2018-03-07T18:02:51.913Z,6.00
2018-03-07T18:05:18.911Z,5.90
2018-03-07T18:07:45.124Z,5.90
2018-03-07T18:10:11.343Z,5.90
2018-03-07T18:12:37.624Z,5.80
2018-03-07T18:15:03.926Z,5.80
2018-03-07T18:17:30.171Z,5.70
2018-03-07T18:19:56.390Z,5.70
2018-03-07T18:22:22.608Z,5.70
2018-03-07T18:24:48.878Z,5.60
2018-03-07T18:27:15.195Z,5.50
2018-03-07T18:29:41.410Z,5.50
2018-03-07T18:32:07.767Z,5.40
2018-03-07T18:34:34.050Z,5.40
2018-03-07T18:37:00.349Z,5.40
2018-03-07T18:39:26.710Z,5.30
2018-03-07T18:41:53.008Z,5.30
2018-03-07T18:44:26.325Z,5.30
2018-03-07T18:46:52.732Z,5.30
2018-03-07T18:49:18.944Z,5.20
2018-03-07T18:51:45.441Z,5.20
2018-03-07T18:54:11.656Z,5.10
2018-03-07T18:56:37.929Z,5.10
2018-03-07T18:59:04.133Z,5.10
2018-03-07T19:01:30.475Z,5.10
2018-03-07T19:03:56.803Z,5.00
2018-03-07T19:06:23.020Z,5.00
2018-03-07T19:08:49.337Z,5.00
2018-03-07T19:11:15.522Z,5.00
2018-03-07T19:13:41.718Z,4.90
2018-03-07T19:16:07.933Z,4.80
2018-03-07T19:18:34.167Z,4.80
2018-03-07T19:21:00.398Z,4.80
2018-03-07T19:23:27.544Z,4.70
2018-03-07T19:25:53.855Z,4.70
2018-03-07T19:28:20.152Z,4.70
2018-03-07T19:30:46.381Z,4.60
2018-03-07T19:33:12.684Z,4.50
2018-03-07T19:35:38.902Z,4.50
2018-03-07T19:38:05.406Z,4.50
2018-03-07T19:40:31.618Z,4.40
2018-03-07T19:42:58.598Z,4.30
2018-03-07T19:45:24.803Z,4.30
2018-03-07T19:47:51.824Z,4.20
2018-03-07T19:50:18.114Z,4.20
2018-03-07T19:52:44.337Z,4.20
2018-03-07T19:55:10.624Z,4.20
2018-03-07T19:57:36.872Z,4.20
2018-03-07T20:00:09.045Z,4.10
2018-03-07T20:02:35.264Z,4.10
2018-03-07T20:05:02.975Z,4.00
2018-03-07T20:07:29.237Z,4.00
2018-03-07T20:09:55.537Z,4.00
2018-03-07T20:12:22.564Z,3.90
2018-03-07T20:14:48.942Z,3.90
2018-03-07T20:17:15.209Z,3.90
2018-03-07T20:19:41.434Z,3.90
2018-03-07T20:22:08.422Z,3.80
2018-03-07T20:24:35.061Z,3.80
2018-03-07T20:27:01.684Z,3.70
2018-03-07T20:29:29.064Z,3.70
2018-03-07T20:31:55.396Z,3.70
2018-03-07T20:34:22.331Z,3.70
2018-03-07T20:36:48.585Z,3.60
2018-03-07T20:39:14.806Z,3.60
2018-03-07T20:41:41.000Z,3.60
2018-03-07T20:44:07.228Z,3.60
2018-03-07T20:46:33.454Z,3.60
2018-03-07T20:48:59.654Z,3.60
2018-03-07T20:54:00.234Z,3.60
2018-03-07T20:56:26.454Z,3.60
2018-03-07T20:58:52.819Z,3.60
2018-03-07T21:01:19.039Z,3.60
2018-03-07T21:03:45.379Z,3.60
2018-03-07T21:06:11.763Z,3.60
2018-03-07T21:08:38.716Z,3.50
2018-03-07T21:11:05.043Z,3.50
2018-03-07T21:13:31.254Z,3.50
2018-03-07T21:15:58.301Z,3.50
2018-03-07T21:18:25.227Z,3.50
2018-03-07T21:20:51.437Z,3.50
2018-03-07T21:23:17.636Z,3.50
2018-03-07T21:25:43.837Z,3.50
2018-03-07T21:28:10.848Z,3.40
2018-03-07T21:30:37.100Z,3.40
2018-03-07T21:33:03.393Z,3.50
2018-03-07T21:35:29.677Z,3.40
2018-03-07T21:37:56.713Z,3.40
2018-03-07T21:40:23.783Z,3.40
2018-03-07T21:42:49.998Z,3.40
2018-03-07T21:45:17.157Z,3.40
2018-03-07T21:47:44.483Z,3.40
2018-03-07T21:50:10.756Z,3.40
2018-03-07T21:52:36.984Z,3.40
2018-03-07T21:55:03.271Z,3.40
2018-03-07T21:57:30.398Z,3.40
2018-03-07T21:59:56.715Z,3.40
2018-03-07T22:02:22.916Z,3.40
2018-03-07T22:04:49.178Z,3.40
2018-03-07T22:07:15.391Z,3.40
2018-03-07T22:09:41.622Z,3.40
2018-03-07T22:12:07.888Z,3.40
2018-03-07T22:14:34.120Z,3.30
2018-03-07T22:17:00.324Z,3.30
2018-03-07T22:19:26.561Z,3.30
2018-03-07T22:21:52.785Z,3.30
2018-03-07T22:24:18.987Z,3.30
2018-03-07T22:26:45.202Z,3.30
2018-03-07T22:29:12.133Z,3.30
2018-03-07T22:31:38.325Z,3.30
2018-03-07T22:34:04.649Z,3.30
2018-03-07T22:36:30.881Z,3.30
2018-03-07T22:38:57.188Z,3.30
2018-03-07T22:41:23.399Z,3.30
2018-03-07T22:43:50.040Z,3.20
2018-03-07T22:46:16.402Z,3.20
2018-03-07T22:48:42.635Z,3.20
2018-03-07T22:51:08.958Z,3.20
2018-03-07T22:53:35.149Z,3.20
2018-03-07T22:56:02.088Z,3.20
2018-03-07T22:58:29.040Z,3.10
2018-03-07T23:00:56.049Z,3.10
2018-03-07T23:03:22.510Z,3.10
2018-03-07T23:05:48.786Z,3.10
2018-03-07T23:08:15.313Z,3.10
2018-03-07T23:10:41.582Z,3.10
2018-03-07T23:13:07.795Z,3.10
2018-03-07T23:15:34.147Z,3.10
2018-03-07T23:18:00.412Z,3.10
2018-03-07T23:20:27.334Z,3.00
2018-03-07T23:22:53.600Z,3.00
2018-03-07T23:25:19.838Z,3.00
2018-03-07T23:27:46.021Z,3.00
2018-03-07T23:30:12.242Z,3.00
2018-03-07T23:32:38.436Z,3.00
2018-03-07T23:35:04.638Z,3.00
2018-03-07T23:37:30.895Z,3.00
2018-03-07T23:39:57.838Z,2.90
2018-03-07T23:42:24.082Z,2.90
2018-03-07T23:44:50.630Z,2.90
2018-03-07T23:47:16.807Z,2.90
2018-03-07T23:49:43.053Z,2.90
2018-03-07T23:52:09.329Z,2.90
2018-03-07T23:54:35.514Z,2.90
2018-03-07T23:57:01.704Z,2.90
2018-03-07T23:59:28.629Z,2.80
